sensor_id;sensor_type;location;lat;lon;timestamp;temperature;humidity
12622;DHT22;6376;48.182;-1.644;2022-08-21T00:00:11;21.30;69.70
12622;DHT22;6376;48.182;-1.644;2022-08-21T00:02:43;21.30;69.70
12622;DHT22;6376;48.182;-1.644;2022-08-21T00:05:08;21.30;69.80
12622;DHT22;6376;48.182;-1.644;2022-08-21T00:07:34;21.30;69.70
12622;DHT22;6376;48.182;-1.644;2022-08-21T00:10:00;21.30;69.70
12622;DHT22;6376;48.182;-1.644;2022-08-21T00:12:25;21.30;69.80
12622;DHT22;6376;48.182;-1.644;2022-08-21T00:14:52;21.30;69.80
12622;DHT22;6376;48.182;-1.644;2022-08-21T00:17:18;21.30;69.80
12622;DHT22;6376;48.182;-1.644;2022-08-21T00:19:44;21.30;69.80
12622;DHT22;6376;48.182;-1.644;2022-08-21T00:22:09;21.30;69.90
12622;DHT22;6376;48.182;-1.644;2022-08-21T00:24:35;21.30;70.00
12622;DHT22;6376;48.182;-1.644;2022-08-21T00:27:01;21.20;69.90
12622;DHT22;6376;48.182;-1.644;2022-08-21T00:29:27;21.20;70.00
12622;DHT22;6376;48.182;-1.644;2022-08-21T00:31:52;21.20;70.00
12622;DHT22;6376;48.182;-1.644;2022-08-21T00:34:18;21.20;69.90
12622;DHT22;6376;48.182;-1.644;2022-08-21T00:36:44;21.20;70.00
12622;DHT22;6376;48.182;-1.644;2022-08-21T00:39:10;21.20;70.00
12622;DHT22;6376;48.182;-1.644;2022-08-21T00:41:37;21.20;70.00
12622;DHT22;6376;48.182;-1.644;2022-08-21T00:44:05;21.20;70.00
12622;DHT22;6376;48.182;-1.644;2022-08-21T00:46:32;21.20;70.00
12622;DHT22;6376;48.182;-1.644;2022-08-21T00:48:58;21.20;70.00
12622;DHT22;6376;48.182;-1.644;2022-08-21T00:51:38;21.20;70.20
12622;DHT22;6376;48.182;-1.644;2022-08-21T00:54:05;21.10;70.10
12622;DHT22;6376;48.182;-1.644;2022-08-21T00:56:31;21.20;70.20
12622;DHT22;6376;48.182;-1.644;2022-08-21T00:58:57;21.10;70.20
12622;DHT22;6376;48.182;-1.644;2022-08-21T01:01:24;21.10;70.20
12622;DHT22;6376;48.182;-1.644;2022-08-21T01:03:49;21.10;70.30
12622;DHT22;6376;48.182;-1.644;2022-08-21T01:06:16;21.10;70.20
12622;DHT22;6376;48.182;-1.644;2022-08-21T01:08:42;21.10;70.20
12622;DHT22;6376;48.182;-1.644;2022-08-21T01:11:08;21.10;70.30
12622;DHT22;6376;48.182;-1.644;2022-08-21T01:13:36;21.10;70.30
12622;DHT22;6376;48.182;-1.644;2022-08-21T01:16:05;21.10;70.30
12622;DHT22;6376;48.182;-1.644;2022-08-21T01:18:33;21.10;70.30
12622;DHT22;6376;48.182;-1.644;2022-08-21T01:21:16;21.10;70.30
12622;DHT22;6376;48.182;-1.644;2022-08-21T01:23:44;21.10;70.40
12622;DHT22;6376;48.182;-1.644;2022-08-21T01:26:14;21.10;70.30
12622;DHT22;6376;48.182;-1.644;2022-08-21T01:28:45;21.00;70.30
12622;DHT22;6376;48.182;-1.644;2022-08-21T01:31:15;21.00;70.40
12622;DHT22;6376;48.182;-1.644;2022-08-21T01:33:43;21.00;70.40
12622;DHT22;6376;48.182;-1.644;2022-08-21T01:36:08;21.00;70.40
12622;DHT22;6376;48.182;-1.644;2022-08-21T01:38:34;21.00;70.40
12622;DHT22;6376;48.182;-1.644;2022-08-21T01:41:00;21.00;70.40
12622;DHT22;6376;48.182;-1.644;2022-08-21T01:43:26;21.00;70.40
12622;DHT22;6376;48.182;-1.644;2022-08-21T01:45:51;21.00;70.50
12622;DHT22;6376;48.182;-1.644;2022-08-21T01:48:17;21.00;70.50
12622;DHT22;6376;48.182;-1.644;2022-08-21T01:50:43;21.00;70.40
12622;DHT22;6376;48.182;-1.644;2022-08-21T01:53:08;21.00;70.50
12622;DHT22;6376;48.182;-1.644;2022-08-21T01:55:34;21.00;70.50
12622;DHT22;6376;48.182;-1.644;2022-08-21T01:58:00;21.00;70.60
12622;DHT22;6376;48.182;-1.644;2022-08-21T02:00:26;21.00;70.50
12622;DHT22;6376;48.182;-1.644;2022-08-21T02:02:52;21.00;70.60
12622;DHT22;6376;48.182;-1.644;2022-08-21T02:05:18;21.00;70.60
12622;DHT22;6376;48.182;-1.644;2022-08-21T02:07:50;21.00;70.60
12622;DHT22;6376;48.182;-1.644;2022-08-21T02:10:21;21.00;70.70
12622;DHT22;6376;48.182;-1.644;2022-08-21T02:12:47;21.00;71.40
12622;DHT22;6376;48.182;-1.644;2022-08-21T02:15:13;20.90;70.60
12622;DHT22;6376;48.182;-1.644;2022-08-21T02:17:42;20.90;70.80
12622;DHT22;6376;48.182;-1.644;2022-08-21T02:20:11;20.90;70.80
12622;DHT22;6376;48.182;-1.644;2022-08-21T02:22:36;20.90;70.80
12622;DHT22;6376;48.182;-1.644;2022-08-21T02:25:03;20.90;70.80
12622;DHT22;6376;48.182;-1.644;2022-08-21T02:27:29;20.90;70.80
12622;DHT22;6376;48.182;-1.644;2022-08-21T02:29:56;20.90;70.90
12622;DHT22;6376;48.182;-1.644;2022-08-21T02:32:22;20.90;70.80
12622;DHT22;6376;48.182;-1.644;2022-08-21T02:34:48;20.90;70.90
12622;DHT22;6376;48.182;-1.644;2022-08-21T02:37:14;20.90;70.90
12622;DHT22;6376;48.182;-1.644;2022-08-21T02:39:40;20.90;70.90
12622;DHT22;6376;48.182;-1.644;2022-08-21T02:42:05;20.90;70.90
12622;DHT22;6376;48.182;-1.644;2022-08-21T02:44:31;20.90;70.90
12622;DHT22;6376;48.182;-1.644;2022-08-21T02:46:57;20.90;71.70
12622;DHT22;6376;48.182;-1.644;2022-08-21T02:49:22;20.90;70.90
12622;DHT22;6376;48.182;-1.644;2022-08-21T02:51:48;20.90;70.90
12622;DHT22;6376;48.182;-1.644;2022-08-21T02:54:13;20.90;71.00
12622;DHT22;6376;48.182;-1.644;2022-08-21T02:56:39;20.80;70.90
12622;DHT22;6376;48.182;-1.644;2022-08-21T02:59:05;20.90;71.10
12622;DHT22;6376;48.182;-1.644;2022-08-21T03:01:30;20.80;70.90
12622;DHT22;6376;48.182;-1.644;2022-08-21T03:03:56;20.80;71.10
12622;DHT22;6376;48.182;-1.644;2022-08-21T03:06:22;20.80;71.10
12622;DHT22;6376;48.182;-1.644;2022-08-21T03:08:48;20.80;71.10
12622;DHT22;6376;48.182;-1.644;2022-08-21T03:11:15;20.80;71.10
12622;DHT22;6376;48.182;-1.644;2022-08-21T03:13:41;20.80;71.10
12622;DHT22;6376;48.182;-1.644;2022-08-21T03:16:07;20.80;71.10
12622;DHT22;6376;48.182;-1.644;2022-08-21T03:18:33;20.80;71.20
12622;DHT22;6376;48.182;-1.644;2022-08-21T03:20:58;20.80;71.20
12622;DHT22;6376;48.182;-1.644;2022-08-21T03:23:24;20.80;71.20
12622;DHT22;6376;48.182;-1.644;2022-08-21T03:25:50;20.80;71.20
12622;DHT22;6376;48.182;-1.644;2022-08-21T03:28:19;20.70;71.20
12622;DHT22;6376;48.182;-1.644;2022-08-21T03:30:48;20.70;71.20
12622;DHT22;6376;48.182;-1.644;2022-08-21T03:33:14;20.70;71.30
12622;DHT22;6376;48.182;-1.644;2022-08-21T03:35:40;20.70;71.30
12622;DHT22;6376;48.182;-1.644;2022-08-21T03:38:07;20.70;71.40
12622;DHT22;6376;48.182;-1.644;2022-08-21T03:40:33;20.70;71.30
12622;DHT22;6376;48.182;-1.644;2022-08-21T03:42:59;20.70;71.40
12622;DHT22;6376;48.182;-1.644;2022-08-21T03:45:25;20.70;71.50
12622;DHT22;6376;48.182;-1.644;2022-08-21T03:48:02;20.70;72.20
12622;DHT22;6376;48.182;-1.644;2022-08-21T03:50:32;20.70;72.20
12622;DHT22;6376;48.182;-1.644;2022-08-21T03:52:58;20.70;71.50
12622;DHT22;6376;48.182;-1.644;2022-08-21T03:55:25;20.70;71.50
12622;DHT22;6376;48.182;-1.644;2022-08-21T03:57:51;20.70;71.50
12622;DHT22;6376;48.182;-1.644;2022-08-21T04:00:17;20.70;71.50
12622;DHT22;6376;48.182;-1.644;2022-08-21T04:02:44;20.70;71.50
12622;DHT22;6376;48.182;-1.644;2022-08-21T04:05:12;20.60;71.50
12622;DHT22;6376;48.182;-1.644;2022-08-21T04:07:38;20.60;71.50
12622;DHT22;6376;48.182;-1.644;2022-08-21T04:10:06;20.60;71.50
12622;DHT22;6376;48.182;-1.644;2022-08-21T04:12:32;20.60;71.50
12622;DHT22;6376;48.182;-1.644;2022-08-21T04:14:58;20.60;71.60
12622;DHT22;6376;48.182;-1.644;2022-08-21T04:17:23;20.60;71.50
12622;DHT22;6376;48.182;-1.644;2022-08-21T04:19:49;20.60;71.50
12622;DHT22;6376;48.182;-1.644;2022-08-21T04:22:15;20.60;71.60
12622;DHT22;6376;48.182;-1.644;2022-08-21T04:24:41;20.60;71.60
12622;DHT22;6376;48.182;-1.644;2022-08-21T04:27:07;20.60;71.60
12622;DHT22;6376;48.182;-1.644;2022-08-21T04:29:33;20.60;71.60
12622;DHT22;6376;48.182;-1.644;2022-08-21T04:31:58;20.60;71.60
12622;DHT22;6376;48.182;-1.644;2022-08-21T04:34:24;20.60;71.60
12622;DHT22;6376;48.182;-1.644;2022-08-21T04:36:50;20.60;71.60
12622;DHT22;6376;48.182;-1.644;2022-08-21T04:39:16;20.60;71.70
12622;DHT22;6376;48.182;-1.644;2022-08-21T04:41:41;20.60;71.80
12622;DHT22;6376;48.182;-1.644;2022-08-21T04:44:07;20.60;71.80
12622;DHT22;6376;48.182;-1.644;2022-08-21T04:46:34;20.60;71.80
12622;DHT22;6376;48.182;-1.644;2022-08-21T04:48:59;20.50;71.70
12622;DHT22;6376;48.182;-1.644;2022-08-21T04:51:28;20.50;71.80
12622;DHT22;6376;48.182;-1.644;2022-08-21T04:53:56;20.50;71.80
12622;DHT22;6376;48.182;-1.644;2022-08-21T04:56:28;20.50;71.90
12622;DHT22;6376;48.182;-1.644;2022-08-21T04:58:57;20.50;71.90
12622;DHT22;6376;48.182;-1.644;2022-08-21T05:01:25;20.50;71.90
12622;DHT22;6376;48.182;-1.644;2022-08-21T05:03:55;20.50;71.90
12622;DHT22;6376;48.182;-1.644;2022-08-21T05:06:22;20.50;72.00
12622;DHT22;6376;48.182;-1.644;2022-08-21T05:08:50;20.50;72.00
12622;DHT22;6376;48.182;-1.644;2022-08-21T05:11:18;20.50;72.00
12622;DHT22;6376;48.182;-1.644;2022-08-21T05:13:45;20.50;72.00
12622;DHT22;6376;48.182;-1.644;2022-08-21T05:16:11;20.50;72.00
12622;DHT22;6376;48.182;-1.644;2022-08-21T05:18:37;20.50;72.00
12622;DHT22;6376;48.182;-1.644;2022-08-21T05:21:03;20.50;72.10
12622;DHT22;6376;48.182;-1.644;2022-08-21T05:23:28;20.50;72.10
12622;DHT22;6376;48.182;-1.644;2022-08-21T05:25:54;20.50;72.10
12622;DHT22;6376;48.182;-1.644;2022-08-21T05:28:21;20.50;72.10
12622;DHT22;6376;48.182;-1.644;2022-08-21T05:30:47;20.50;72.10
12622;DHT22;6376;48.182;-1.644;2022-08-21T05:33:12;20.50;72.20
12622;DHT22;6376;48.182;-1.644;2022-08-21T05:35:39;20.50;72.20
12622;DHT22;6376;48.182;-1.644;2022-08-21T05:38:04;20.50;72.20
12622;DHT22;6376;48.182;-1.644;2022-08-21T05:40:31;20.50;72.20
12622;DHT22;6376;48.182;-1.644;2022-08-21T05:42:57;20.40;72.20
12622;DHT22;6376;48.182;-1.644;2022-08-21T05:45:27;20.40;72.10
12622;DHT22;6376;48.182;-1.644;2022-08-21T05:47:53;20.50;72.20
12622;DHT22;6376;48.182;-1.644;2022-08-21T05:50:19;20.40;72.20
12622;DHT22;6376;48.182;-1.644;2022-08-21T05:52:45;20.50;72.30
12622;DHT22;6376;48.182;-1.644;2022-08-21T05:55:11;20.40;72.20
12622;DHT22;6376;48.182;-1.644;2022-08-21T05:57:37;20.40;72.20
12622;DHT22;6376;48.182;-1.644;2022-08-21T06:00:07;20.40;72.30
12622;DHT22;6376;48.182;-1.644;2022-08-21T06:02:35;20.40;72.30
12622;DHT22;6376;48.182;-1.644;2022-08-21T06:05:01;20.40;72.30
12622;DHT22;6376;48.182;-1.644;2022-08-21T06:07:26;20.40;72.30
12622;DHT22;6376;48.182;-1.644;2022-08-21T06:09:52;20.40;72.30
12622;DHT22;6376;48.182;-1.644;2022-08-21T06:12:18;20.40;72.30
12622;DHT22;6376;48.182;-1.644;2022-08-21T06:14:43;20.40;72.30
12622;DHT22;6376;48.182;-1.644;2022-08-21T06:17:11;20.40;72.30
12622;DHT22;6376;48.182;-1.644;2022-08-21T06:19:38;20.40;72.30
12622;DHT22;6376;48.182;-1.644;2022-08-21T06:22:04;20.40;72.30
12622;DHT22;6376;48.182;-1.644;2022-08-21T06:24:30;20.40;72.30
12622;DHT22;6376;48.182;-1.644;2022-08-21T06:26:56;20.40;72.30
12622;DHT22;6376;48.182;-1.644;2022-08-21T06:29:23;20.40;72.30
12622;DHT22;6376;48.182;-1.644;2022-08-21T06:31:50;20.40;72.30
12622;DHT22;6376;48.182;-1.644;2022-08-21T06:34:16;20.40;72.30
12622;DHT22;6376;48.182;-1.644;2022-08-21T06:36:42;20.40;72.30
12622;DHT22;6376;48.182;-1.644;2022-08-21T06:39:08;20.40;72.30
12622;DHT22;6376;48.182;-1.644;2022-08-21T06:41:34;20.40;72.30
12622;DHT22;6376;48.182;-1.644;2022-08-21T06:43:59;20.40;72.30
12622;DHT22;6376;48.182;-1.644;2022-08-21T06:46:28;20.40;72.30
12622;DHT22;6376;48.182;-1.644;2022-08-21T06:48:55;20.40;72.30
12622;DHT22;6376;48.182;-1.644;2022-08-21T06:51:21;20.40;72.30
12622;DHT22;6376;48.182;-1.644;2022-08-21T06:53:48;20.40;72.30
12622;DHT22;6376;48.182;-1.644;2022-08-21T06:56:13;20.40;72.30
12622;DHT22;6376;48.182;-1.644;2022-08-21T06:58:39;20.40;72.30
12622;DHT22;6376;48.182;-1.644;2022-08-21T07:01:05;20.40;72.30
12622;DHT22;6376;48.182;-1.644;2022-08-21T07:03:40;20.40;72.30
12622;DHT22;6376;48.182;-1.644;2022-08-21T07:06:08;20.40;72.30
12622;DHT22;6376;48.182;-1.644;2022-08-21T07:08:34;20.40;72.30
12622;DHT22;6376;48.182;-1.644;2022-08-21T07:11:03;20.40;72.20
12622;DHT22;6376;48.182;-1.644;2022-08-21T07:13:31;20.40;72.20
12622;DHT22;6376;48.182;-1.644;2022-08-21T07:15:57;20.40;72.20
12622;DHT22;6376;48.182;-1.644;2022-08-21T07:18:22;20.40;72.20
12622;DHT22;6376;48.182;-1.644;2022-08-21T07:20:48;20.40;72.20
12622;DHT22;6376;48.182;-1.644;2022-08-21T07:23:36;20.40;72.20
12622;DHT22;6376;48.182;-1.644;2022-08-21T07:26:02;20.40;72.20
12622;DHT22;6376;48.182;-1.644;2022-08-21T07:28:29;20.50;72.30
12622;DHT22;6376;48.182;-1.644;2022-08-21T07:30:57;20.40;72.20
12622;DHT22;6376;48.182;-1.644;2022-08-21T07:33:23;20.40;72.20
12622;DHT22;6376;48.182;-1.644;2022-08-21T07:35:49;20.40;72.10
12622;DHT22;6376;48.182;-1.644;2022-08-21T07:38:15;20.50;72.20
12622;DHT22;6376;48.182;-1.644;2022-08-21T07:40:41;20.50;72.10
12622;DHT22;6376;48.182;-1.644;2022-08-21T07:43:07;20.50;72.10
12622;DHT22;6376;48.182;-1.644;2022-08-21T07:45:33;20.50;72.10
12622;DHT22;6376;48.182;-1.644;2022-08-21T07:47:59;20.50;72.20
12622;DHT22;6376;48.182;-1.644;2022-08-21T07:50:24;20.50;72.10
12622;DHT22;6376;48.182;-1.644;2022-08-21T07:52:50;20.50;72.10
12622;DHT22;6376;48.182;-1.644;2022-08-21T07:55:19;20.50;72.10
12622;DHT22;6376;48.182;-1.644;2022-08-21T07:57:46;20.50;72.20
12622;DHT22;6376;48.182;-1.644;2022-08-21T08:00:15;20.50;72.20
12622;DHT22;6376;48.182;-1.644;2022-08-21T08:02:47;20.50;72.20
12622;DHT22;6376;48.182;-1.644;2022-08-21T08:05:16;20.50;72.20
12622;DHT22;6376;48.182;-1.644;2022-08-21T08:07:42;20.50;72.20
12622;DHT22;6376;48.182;-1.644;2022-08-21T08:10:09;20.50;72.20
12622;DHT22;6376;48.182;-1.644;2022-08-21T08:12:36;20.50;72.10
12622;DHT22;6376;48.182;-1.644;2022-08-21T08:15:03;20.50;72.10
12622;DHT22;6376;48.182;-1.644;2022-08-21T08:17:29;20.50;72.00
12622;DHT22;6376;48.182;-1.644;2022-08-21T08:19:55;20.50;72.10
12622;DHT22;6376;48.182;-1.644;2022-08-21T08:22:22;20.50;72.10
12622;DHT22;6376;48.182;-1.644;2022-08-21T08:24:50;20.50;72.00
12622;DHT22;6376;48.182;-1.644;2022-08-21T08:27:16;20.50;72.00
12622;DHT22;6376;48.182;-1.644;2022-08-21T08:29:42;20.50;72.00
12622;DHT22;6376;48.182;-1.644;2022-08-21T08:32:08;20.50;72.00
12622;DHT22;6376;48.182;-1.644;2022-08-21T08:34:35;20.50;72.30
12622;DHT22;6376;48.182;-1.644;2022-08-21T08:37:00;20.50;72.50
12622;DHT22;6376;48.182;-1.644;2022-08-21T08:39:27;20.60;72.10
12622;DHT22;6376;48.182;-1.644;2022-08-21T08:42:12;20.60;72.10
12622;DHT22;6376;48.182;-1.644;2022-08-21T08:44:43;20.60;71.90
12622;DHT22;6376;48.182;-1.644;2022-08-21T08:47:17;20.60;72.10
12622;DHT22;6376;48.182;-1.644;2022-08-21T08:52:22;20.60;72.00
12622;DHT22;6376;48.182;-1.644;2022-08-21T08:55:02;20.60;71.90
12622;DHT22;6376;48.182;-1.644;2022-08-21T08:57:29;20.60;71.90
12622;DHT22;6376;48.182;-1.644;2022-08-21T09:00:00;20.60;71.80
12622;DHT22;6376;48.182;-1.644;2022-08-21T09:02:26;20.60;71.70
12622;DHT22;6376;48.182;-1.644;2022-08-21T09:04:55;20.60;71.60
12622;DHT22;6376;48.182;-1.644;2022-08-21T09:10:26;20.70;71.50
12622;DHT22;6376;48.182;-1.644;2022-08-21T09:18:51;21.20;69.80
12622;DHT22;6376;48.182;-1.644;2022-08-21T09:21:45;21.20;69.70
12622;DHT22;6376;48.182;-1.644;2022-08-21T09:24:33;21.20;69.60
12622;DHT22;6376;48.182;-1.644;2022-08-21T09:27:17;21.20;69.40
12622;DHT22;6376;48.182;-1.644;2022-08-21T09:29:47;21.10;69.60
12622;DHT22;6376;48.182;-1.644;2022-08-21T09:32:28;21.00;69.90
12622;DHT22;6376;48.182;-1.644;2022-08-21T09:37:26;21.10;69.80
12622;DHT22;6376;48.182;-1.644;2022-08-21T09:39:58;21.20;69.60
12622;DHT22;6376;48.182;-1.644;2022-08-21T09:42:29;21.20;70.00
12622;DHT22;6376;48.182;-1.644;2022-08-21T09:45:16;21.30;69.40
12622;DHT22;6376;48.182;-1.644;2022-08-21T09:47:42;21.30;69.20
12622;DHT22;6376;48.182;-1.644;2022-08-21T09:50:22;21.30;69.00
12622;DHT22;6376;48.182;-1.644;2022-08-21T09:52:51;21.30;68.90
12622;DHT22;6376;48.182;-1.644;2022-08-21T09:55:34;21.40;68.90
12622;DHT22;6376;48.182;-1.644;2022-08-21T09:58:30;21.40;68.70
12622;DHT22;6376;48.182;-1.644;2022-08-21T10:01:01;21.40;68.60
12622;DHT22;6376;48.182;-1.644;2022-08-21T10:03:27;21.40;68.60
12622;DHT22;6376;48.182;-1.644;2022-08-21T10:06:00;21.40;68.60
12622;DHT22;6376;48.182;-1.644;2022-08-21T10:08:28;21.40;68.80
12622;DHT22;6376;48.182;-1.644;2022-08-21T10:10:57;21.40;68.80
12622;DHT22;6376;48.182;-1.644;2022-08-21T10:18:42;21.50;68.30
12622;DHT22;6376;48.182;-1.644;2022-08-21T10:33:20;21.40;68.30
12622;DHT22;6376;48.182;-1.644;2022-08-21T10:41:50;21.40;68.60
12622;DHT22;6376;48.182;-1.644;2022-08-21T10:47:15;21.50;68.60
12622;DHT22;6376;48.182;-1.644;2022-08-21T10:52:36;21.50;68.40
12622;DHT22;6376;48.182;-1.644;2022-08-21T10:55:14;21.50;68.60
12622;DHT22;6376;48.182;-1.644;2022-08-21T11:00:21;21.50;68.80
12622;DHT22;6376;48.182;-1.644;2022-08-21T11:03:11;21.50;68.50
12622;DHT22;6376;48.182;-1.644;2022-08-21T11:05:50;21.50;68.60
12622;DHT22;6376;48.182;-1.644;2022-08-21T11:08:28;21.50;68.80
12622;DHT22;6376;48.182;-1.644;2022-08-21T11:10:59;21.50;68.90
12622;DHT22;6376;48.182;-1.644;2022-08-21T11:13:57;21.50;68.90
12622;DHT22;6376;48.182;-1.644;2022-08-21T11:16:40;21.50;68.80
12622;DHT22;6376;48.182;-1.644;2022-08-21T11:19:47;21.50;68.80
12622;DHT22;6376;48.182;-1.644;2022-08-21T11:22:27;21.50;69.10
12622;DHT22;6376;48.182;-1.644;2022-08-21T11:27:41;21.50;68.70
12622;DHT22;6376;48.182;-1.644;2022-08-21T11:30:09;21.50;68.90
12622;DHT22;6376;48.182;-1.644;2022-08-21T11:35:39;21.50;69.10
12622;DHT22;6376;48.182;-1.644;2022-08-21T11:41:08;21.50;69.20
12622;DHT22;6376;48.182;-1.644;2022-08-21T11:43:41;21.50;68.90
12622;DHT22;6376;48.182;-1.644;2022-08-21T11:48:59;21.50;69.30
12622;DHT22;6376;48.182;-1.644;2022-08-21T11:56:55;21.50;69.10
12622;DHT22;6376;48.182;-1.644;2022-08-21T11:59:59;21.50;69.30
12622;DHT22;6376;48.182;-1.644;2022-08-21T12:02:23;21.50;69.50
12622;DHT22;6376;48.182;-1.644;2022-08-21T12:05:04;21.50;69.70
12622;DHT22;6376;48.182;-1.644;2022-08-21T12:07:42;21.50;70.00
12622;DHT22;6376;48.182;-1.644;2022-08-21T12:10:15;21.50;70.30
12622;DHT22;6376;48.182;-1.644;2022-08-21T12:12:43;21.40;70.20
12622;DHT22;6376;48.182;-1.644;2022-08-21T12:17:52;21.30;70.50
12622;DHT22;6376;48.182;-1.644;2022-08-21T12:20:37;21.20;70.50
12622;DHT22;6376;48.182;-1.644;2022-08-21T12:28:24;21.30;71.10
12622;DHT22;6376;48.182;-1.644;2022-08-21T12:30:50;21.40;71.10
12622;DHT22;6376;48.182;-1.644;2022-08-21T12:35:48;21.50;70.50
12622;DHT22;6376;48.182;-1.644;2022-08-21T12:38:21;21.50;70.20
12622;DHT22;6376;48.182;-1.644;2022-08-21T12:43:29;21.50;70.90
12622;DHT22;6376;48.182;-1.644;2022-08-21T12:45:56;21.40;71.00
12622;DHT22;6376;48.182;-1.644;2022-08-21T12:48:29;21.40;71.60
12622;DHT22;6376;48.182;-1.644;2022-08-21T12:51:06;21.40;71.40
12622;DHT22;6376;48.182;-1.644;2022-08-21T12:53:49;21.50;71.30
12622;DHT22;6376;48.182;-1.644;2022-08-21T12:56:18;21.50;70.80
12622;DHT22;6376;48.182;-1.644;2022-08-21T12:58:47;21.50;71.00
12622;DHT22;6376;48.182;-1.644;2022-08-21T13:01:19;21.50;71.10
12622;DHT22;6376;48.182;-1.644;2022-08-21T13:03:46;21.50;70.50
12622;DHT22;6376;48.182;-1.644;2022-08-21T13:06:15;21.50;70.80
12622;DHT22;6376;48.182;-1.644;2022-08-21T13:08:43;21.40;71.10
12622;DHT22;6376;48.182;-1.644;2022-08-21T13:11:10;21.50;71.00
12622;DHT22;6376;48.182;-1.644;2022-08-21T13:13:38;21.50;70.80
12622;DHT22;6376;48.182;-1.644;2022-08-21T13:16:07;21.50;70.80
12622;DHT22;6376;48.182;-1.644;2022-08-21T13:18:35;21.50;70.50
12622;DHT22;6376;48.182;-1.644;2022-08-21T13:21:28;21.50;71.60
12622;DHT22;6376;48.182;-1.644;2022-08-21T13:23:54;21.50;70.30
12622;DHT22;6376;48.182;-1.644;2022-08-21T13:26:31;21.50;70.60
12622;DHT22;6376;48.182;-1.644;2022-08-21T13:29:07;21.50;71.00
12622;DHT22;6376;48.182;-1.644;2022-08-21T13:31:33;21.50;71.10
12622;DHT22;6376;48.182;-1.644;2022-08-21T13:33:59;21.50;70.70
12622;DHT22;6376;48.182;-1.644;2022-08-21T13:36:28;21.50;70.60
12622;DHT22;6376;48.182;-1.644;2022-08-21T13:38:55;21.50;70.80
12622;DHT22;6376;48.182;-1.644;2022-08-21T13:41:28;21.50;71.00
12622;DHT22;6376;48.182;-1.644;2022-08-21T13:44:00;21.50;70.70
12622;DHT22;6376;48.182;-1.644;2022-08-21T13:46:32;21.50;70.50
12622;DHT22;6376;48.182;-1.644;2022-08-21T13:49:00;21.50;70.50
12622;DHT22;6376;48.182;-1.644;2022-08-21T13:51:27;21.50;70.40
12622;DHT22;6376;48.182;-1.644;2022-08-21T13:53:53;21.50;70.80
12622;DHT22;6376;48.182;-1.644;2022-08-21T13:58:48;21.50;70.80
12622;DHT22;6376;48.182;-1.644;2022-08-21T14:01:27;21.50;71.00
12622;DHT22;6376;48.182;-1.644;2022-08-21T14:04:07;21.50;70.60
12622;DHT22;6376;48.182;-1.644;2022-08-21T14:06:38;21.50;70.70
12622;DHT22;6376;48.182;-1.644;2022-08-21T14:09:10;21.50;70.20
12622;DHT22;6376;48.182;-1.644;2022-08-21T14:11:37;21.50;70.80
12622;DHT22;6376;48.182;-1.644;2022-08-21T14:16:54;21.50;70.50
12622;DHT22;6376;48.182;-1.644;2022-08-21T14:19:41;21.50;70.80
12622;DHT22;6376;48.182;-1.644;2022-08-21T14:22:32;21.50;70.90
12622;DHT22;6376;48.182;-1.644;2022-08-21T14:25:11;21.50;71.10
12622;DHT22;6376;48.182;-1.644;2022-08-21T14:27:44;21.40;71.30
12622;DHT22;6376;48.182;-1.644;2022-08-21T14:30:34;21.30;71.20
12622;DHT22;6376;48.182;-1.644;2022-08-21T14:33:01;21.30;71.20
12622;DHT22;6376;48.182;-1.644;2022-08-21T14:35:27;21.20;71.30
12622;DHT22;6376;48.182;-1.644;2022-08-21T14:37:53;21.20;71.40
12622;DHT22;6376;48.182;-1.644;2022-08-21T14:40:22;21.20;71.50
12622;DHT22;6376;48.182;-1.644;2022-08-21T14:42:47;21.30;72.00
12622;DHT22;6376;48.182;-1.644;2022-08-21T14:45:35;21.40;71.90
12622;DHT22;6376;48.182;-1.644;2022-08-21T14:48:02;21.40;71.20
12622;DHT22;6376;48.182;-1.644;2022-08-21T14:50:28;21.40;70.90
12622;DHT22;6376;48.182;-1.644;2022-08-21T14:52:54;21.50;70.90
12622;DHT22;6376;48.182;-1.644;2022-08-21T14:55:20;21.50;71.10
12622;DHT22;6376;48.182;-1.644;2022-08-21T14:57:48;21.50;70.50
12622;DHT22;6376;48.182;-1.644;2022-08-21T15:00:19;21.50;70.60
12622;DHT22;6376;48.182;-1.644;2022-08-21T15:02:45;21.50;70.50
12622;DHT22;6376;48.182;-1.644;2022-08-21T15:05:11;21.50;71.00
12622;DHT22;6376;48.182;-1.644;2022-08-21T15:07:37;21.50;70.80
12622;DHT22;6376;48.182;-1.644;2022-08-21T15:10:04;21.50;71.10
12622;DHT22;6376;48.182;-1.644;2022-08-21T15:12:30;21.50;71.00
12622;DHT22;6376;48.182;-1.644;2022-08-21T15:14:55;21.50;70.80
12622;DHT22;6376;48.182;-1.644;2022-08-21T15:17:21;21.50;71.90
12622;DHT22;6376;48.182;-1.644;2022-08-21T15:19:47;21.50;71.40
12622;DHT22;6376;48.182;-1.644;2022-08-21T15:22:13;21.50;71.60
12622;DHT22;6376;48.182;-1.644;2022-08-21T15:24:38;21.40;71.30
12622;DHT22;6376;48.182;-1.644;2022-08-21T15:27:06;21.50;71.20
12622;DHT22;6376;48.182;-1.644;2022-08-21T15:29:32;21.50;71.40
12622;DHT22;6376;48.182;-1.644;2022-08-21T15:32:01;21.40;71.70
12622;DHT22;6376;48.182;-1.644;2022-08-21T15:34:29;21.30;71.40
12622;DHT22;6376;48.182;-1.644;2022-08-21T15:36:57;21.30;71.70
12622;DHT22;6376;48.182;-1.644;2022-08-21T15:39:24;21.20;72.30
12622;DHT22;6376;48.182;-1.644;2022-08-21T15:41:50;21.10;72.40
12622;DHT22;6376;48.182;-1.644;2022-08-21T15:44:16;21.30;72.60
12622;DHT22;6376;48.182;-1.644;2022-08-21T15:46:42;21.40;71.90
12622;DHT22;6376;48.182;-1.644;2022-08-21T15:49:10;21.40;71.40
12622;DHT22;6376;48.182;-1.644;2022-08-21T15:51:36;21.40;70.90
12622;DHT22;6376;48.182;-1.644;2022-08-21T15:54:02;21.40;70.90
12622;DHT22;6376;48.182;-1.644;2022-08-21T15:56:34;21.40;71.30
12622;DHT22;6376;48.182;-1.644;2022-08-21T15:59:12;21.30;71.80
12622;DHT22;6376;48.182;-1.644;2022-08-21T16:01:38;21.40;71.40
12622;DHT22;6376;48.182;-1.644;2022-08-21T16:04:04;21.40;71.20
12622;DHT22;6376;48.182;-1.644;2022-08-21T16:06:31;21.40;71.10
12622;DHT22;6376;48.182;-1.644;2022-08-21T16:08:58;21.30;71.10
12622;DHT22;6376;48.182;-1.644;2022-08-21T16:11:24;21.30;71.50
12622;DHT22;6376;48.182;-1.644;2022-08-21T16:13:50;21.20;71.40
12622;DHT22;6376;48.182;-1.644;2022-08-21T16:16:20;21.20;71.60
12622;DHT22;6376;48.182;-1.644;2022-08-21T16:18:47;21.20;71.90
12622;DHT22;6376;48.182;-1.644;2022-08-21T16:21:14;21.20;72.10
12622;DHT22;6376;48.182;-1.644;2022-08-21T16:23:39;21.20;71.70
12622;DHT22;6376;48.182;-1.644;2022-08-21T16:26:07;21.20;71.70
12622;DHT22;6376;48.182;-1.644;2022-08-21T16:28:35;21.20;71.60
12622;DHT22;6376;48.182;-1.644;2022-08-21T16:31:02;21.10;71.60
12622;DHT22;6376;48.182;-1.644;2022-08-21T16:33:34;21.10;71.50
12622;DHT22;6376;48.182;-1.644;2022-08-21T16:36:02;21.10;71.60
12622;DHT22;6376;48.182;-1.644;2022-08-21T16:38:29;21.10;71.30
12622;DHT22;6376;48.182;-1.644;2022-08-21T16:40:55;21.10;71.60
12622;DHT22;6376;48.182;-1.644;2022-08-21T16:43:27;21.10;71.80
12622;DHT22;6376;48.182;-1.644;2022-08-21T16:45:55;21.10;71.90
12622;DHT22;6376;48.182;-1.644;2022-08-21T16:48:22;21.10;72.10
12622;DHT22;6376;48.182;-1.644;2022-08-21T16:50:48;21.10;72.20
12622;DHT22;6376;48.182;-1.644;2022-08-21T16:53:14;21.10;72.10
12622;DHT22;6376;48.182;-1.644;2022-08-21T16:55:40;21.10;72.20
12622;DHT22;6376;48.182;-1.644;2022-08-21T16:58:14;21.10;72.40
12622;DHT22;6376;48.182;-1.644;2022-08-21T17:00:41;21.10;72.10